sensor_id;sensor_type;location;lat;lon;timestamp;pressure;altitude;pressure_sealevel;temperature;humidity
14041;BME280;7095;51.388;6.196;2023-07-20T00:01:14;87083.34;;;-145.32;100.00
14041;BME280;7095;51.388;6.196;2023-07-20T00:03:45;87083.34;;;-145.32;100.00
14041;BME280;7095;51.388;6.196;2023-07-20T00:06:16;87597.34;;;-145.32;100.00
14041;BME280;7095;51.388;6.196;2023-07-20T00:08:46;87340.31;;;-145.32;100.00
14041;BME280;7095;51.388;6.196;2023-07-20T00:11:15;88111.41;;;-145.32;100.00
14041;BME280;7095;51.388;6.196;2023-07-20T00:13:44;89139.81;;;-145.32;100.00
14041;BME280;7095;51.388;6.196;2023-07-20T00:16:13;90940.22;;;-145.32;100.00
14041;BME280;7095;51.388;6.196;2023-07-20T00:18:45;93513.91;;;-145.32;100.00
14041;BME280;7095;51.388;6.196;2023-07-20T00:21:14;96089.47;;;-145.32;100.00
14041;BME280;7095;51.388;6.196;2023-07-20T00:23:42;97635.72;;;-145.32;100.00
14041;BME280;7095;51.388;6.196;2023-07-20T00:26:11;98924.81;;;-145.32;100.00
14041;BME280;7095;51.388;6.196;2023-07-20T00:28:41;100472.31;;;-145.32;100.00
14041;BME280;7095;51.388;6.196;2023-07-20T00:31:10;101762.47;;;-145.32;100.00
14041;BME280;7095;51.388;6.196;2023-07-20T00:33:42;102794.91;;;-145.32;100.00
14041;BME280;7095;51.388;6.196;2023-07-20T00:36:12;104085.91;;;-145.32;100.00
14041;BME280;7095;51.388;6.196;2023-07-20T00:38:42;105119.03;;;-145.32;100.00
14041;BME280;7095;51.388;6.196;2023-07-20T00:41:11;105894.09;;;-145.32;100.00
14041;BME280;7095;51.388;6.196;2023-07-20T00:43:40;106410.88;;;-145.32;100.00
14041;BME280;7095;51.388;6.196;2023-07-20T00:46:10;107703.22;;;-145.32;100.00
14041;BME280;7095;51.388;6.196;2023-07-20T00:48:39;108220.28;;;-145.32;100.00
14041;BME280;7095;51.388;6.196;2023-07-20T00:51:09;108478.84;;;-145.32;100.00
14041;BME280;7095;51.388;6.196;2023-07-20T00:53:40;108737.41;;;-145.32;100.00
14041;BME280;7095;51.388;6.196;2023-07-20T00:56:09;108737.41;;;-145.32;100.00
14041;BME280;7095;51.388;6.196;2023-07-20T00:58:39;108478.84;;;-145.32;100.00
14041;BME280;7095;51.388;6.196;2023-07-20T01:01:08;108737.41;;;-145.32;100.00
14041;BME280;7095;51.388;6.196;2023-07-20T01:03:37;108220.28;;;-145.32;100.00
14041;BME280;7095;51.388;6.196;2023-07-20T01:06:15;107961.72;;;-145.32;100.00
14041;BME280;7095;51.388;6.196;2023-07-20T01:08:57;107444.69;;;-145.32;100.00
14041;BME280;7095;51.388;6.196;2023-07-20T01:11:36;107444.69;;;-145.32;100.00
14041;BME280;7095;51.388;6.196;2023-07-20T01:14:07;107444.69;;;-145.32;100.00
14041;BME280;7095;51.388;6.196;2023-07-20T01:16:36;108220.28;;;-145.32;100.00
14041;BME280;7095;51.388;6.196;2023-07-20T01:19:05;108478.84;;;-145.32;100.00
14041;BME280;7095;51.388;6.196;2023-07-20T01:21:38;108478.84;;;-145.32;100.00
14041;BME280;7095;51.388;6.196;2023-07-20T01:24:41;109254.63;;;-145.32;100.00
14041;BME280;7095;51.388;6.196;2023-07-20T01:30:45;110030.59;;;-145.32;100.00
14041;BME280;7095;51.388;6.196;2023-07-20T01:33:19;109771.94;;;-145.32;100.00
14041;BME280;7095;51.388;6.196;2023-07-20T01:35:52;110030.59;;;-145.32;100.00
14041;BME280;7095;51.388;6.196;2023-07-20T01:38:23;110548.00;;;-145.32;100.00
14041;BME280;7095;51.388;6.196;2023-07-20T01:40:52;110806.75;;;-145.32;100.00
14041;BME280;7095;51.388;6.196;2023-07-20T01:43:21;110806.75;;;-145.32;100.00
14041;BME280;7095;51.388;6.196;2023-07-20T01:45:50;111065.50;;;-145.32;100.00
14041;BME280;7095;51.388;6.196;2023-07-20T01:48:21;111324.28;;;-145.32;100.00
14041;BME280;7095;51.388;6.196;2023-07-20T01:50:50;111583.06;;;-145.32;100.00
14041;BME280;7095;51.388;6.196;2023-07-20T01:53:19;111841.88;;;-145.32;100.00
14041;BME280;7095;51.388;6.196;2023-07-20T01:55:48;112100.69;;;-145.32;100.00
14041;BME280;7095;51.388;6.196;2023-07-20T01:58:16;112100.69;;;-145.32;100.00
14041;BME280;7095;51.388;6.196;2023-07-20T02:00:45;112359.53;;;-145.32;100.00
14041;BME280;7095;51.388;6.196;2023-07-20T02:03:14;112359.53;;;-145.32;100.00
14041;BME280;7095;51.388;6.196;2023-07-20T02:05:44;112359.53;;;-145.32;100.00
14041;BME280;7095;51.388;6.196;2023-07-20T02:08:13;112359.53;;;-145.32;100.00
14041;BME280;7095;51.388;6.196;2023-07-20T02:10:45;112618.41;;;-145.32;100.00
14041;BME280;7095;51.388;6.196;2023-07-20T02:13:14;113395.13;;;-145.32;100.00
14041;BME280;7095;51.388;6.196;2023-07-20T02:15:43;113654.06;;;-145.32;100.00
14041;BME280;7095;51.388;6.196;2023-07-20T02:18:12;113654.06;;;-145.32;100.00
14041;BME280;7095;51.388;6.196;2023-07-20T02:20:40;113913.03;;;-145.32;100.00
14041;BME280;7095;51.388;6.196;2023-07-20T02:23:10;113913.03;;;-145.32;100.00
14041;BME280;7095;51.388;6.196;2023-07-20T02:25:40;113913.03;;;-145.32;100.00
14041;BME280;7095;51.388;6.196;2023-07-20T02:28:09;113913.03;;;-145.32;100.00
14041;BME280;7095;51.388;6.196;2023-07-20T02:30:38;113654.06;;;-145.32;100.00
14041;BME280;7095;51.388;6.196;2023-07-20T02:33:07;113654.06;;;-145.32;100.00
14041;BME280;7095;51.388;6.196;2023-07-20T02:35:36;113654.06;;;-145.32;100.00
14041;BME280;7095;51.388;6.196;2023-07-20T02:38:04;113395.13;;;-145.32;100.00
14041;BME280;7095;51.388;6.196;2023-07-20T02:40:35;113136.22;;;-145.32;100.00
14041;BME280;7095;51.388;6.196;2023-07-20T02:43:04;113395.13;;;-145.32;100.00
14041;BME280;7095;51.388;6.196;2023-07-20T02:45:34;113913.03;;;-145.32;100.00
14041;BME280;7095;51.388;6.196;2023-07-20T02:48:03;113913.03;;;-145.32;100.00
14041;BME280;7095;51.388;6.196;2023-07-20T02:50:35;113654.06;;;-145.32;100.00
14041;BME280;7095;51.388;6.196;2023-07-20T02:53:03;113654.06;;;-145.32;100.00
14041;BME280;7095;51.388;6.196;2023-07-20T02:55:36;113654.06;;;-145.32;100.00
14041;BME280;7095;51.388;6.196;2023-07-20T02:58:05;113654.06;;;-145.32;100.00
14041;BME280;7095;51.388;6.196;2023-07-20T03:00:34;113654.06;;;-145.32;100.00
14041;BME280;7095;51.388;6.196;2023-07-20T03:03:02;113654.06;;;-145.32;100.00
14041;BME280;7095;51.388;6.196;2023-07-20T03:05:32;113654.06;;;-145.32;100.00
14041;BME280;7095;51.388;6.196;2023-07-20T03:08:00;113913.03;;;-145.32;100.00
14041;BME280;7095;51.388;6.196;2023-07-20T03:10:30;113654.06;;;-145.32;100.00
14041;BME280;7095;51.388;6.196;2023-07-20T03:13:00;113654.06;;;-145.32;100.00
14041;BME280;7095;51.388;6.196;2023-07-20T03:15:29;113654.06;;;-145.32;100.00
14041;BME280;7095;51.388;6.196;2023-07-20T03:17:58;113654.06;;;-145.32;100.00
14041;BME280;7095;51.388;6.196;2023-07-20T03:20:28;113654.06;;;-145.32;100.00
14041;BME280;7095;51.388;6.196;2023-07-20T03:22:57;113395.13;;;-145.32;100.00
14041;BME280;7095;51.388;6.196;2023-07-20T03:25:26;113136.22;;;-145.32;100.00
14041;BME280;7095;51.388;6.196;2023-07-20T03:27:55;113654.06;;;-145.32;100.00
14041;BME280;7095;51.388;6.196;2023-07-20T03:30:25;113913.03;;;-145.32;100.00
14041;BME280;7095;51.388;6.196;2023-07-20T03:32:54;113913.03;;;-145.32;100.00
14041;BME280;7095;51.388;6.196;2023-07-20T03:35:22;113913.03;;;-145.32;100.00
14041;BME280;7095;51.388;6.196;2023-07-20T03:37:52;114172.03;;;-145.32;100.00
14041;BME280;7095;51.388;6.196;2023-07-20T03:40:22;114172.03;;;-145.32;100.00
14041;BME280;7095;51.388;6.196;2023-07-20T03:42:51;114431.03;;;-145.32;100.00
14041;BME280;7095;51.388;6.196;2023-07-20T03:45:20;114431.03;;;-145.32;100.00
14041;BME280;7095;51.388;6.196;2023-07-20T03:47:52;114431.03;;;-145.32;100.00
14041;BME280;7095;51.388;6.196;2023-07-20T03:50:23;114172.03;;;-145.32;100.00
14041;BME280;7095;51.388;6.196;2023-07-20T03:52:54;114431.03;;;-145.32;100.00
14041;BME280;7095;51.388;6.196;2023-07-20T03:55:23;114431.03;;;-145.32;100.00
14041;BME280;7095;51.388;6.196;2023-07-20T03:57:52;114431.03;;;-145.32;100.00
14041;BME280;7095;51.388;6.196;2023-07-20T04:00:21;114690.03;;;-145.32;100.00
14041;BME280;7095;51.388;6.196;2023-07-20T04:02:54;114690.03;;;-145.32;100.00
14041;BME280;7095;51.388;6.196;2023-07-20T04:05:24;114690.03;;;-145.32;100.00
14041;BME280;7095;51.388;6.196;2023-07-20T04:07:53;114949.09;;;-145.32;100.00
14041;BME280;7095;51.388;6.196;2023-07-20T04:10:22;115208.13;;;-145.32;100.00
14041;BME280;7095;51.388;6.196;2023-07-20T04:12:55;115208.13;;;-145.32;100.00
14041;BME280;7095;51.388;6.196;2023-07-20T04:15:23;115208.13;;;-145.32;100.00
14041;BME280;7095;51.388;6.196;2023-07-20T04:17:53;115467.22;;;-145.32;100.00
14041;BME280;7095;51.388;6.196;2023-07-20T04:20:24;115208.13;;;-145.32;100.00
14041;BME280;7095;51.388;6.196;2023-07-20T04:22:53;115467.22;;;-145.32;100.00
14041;BME280;7095;51.388;6.196;2023-07-20T04:25:22;115467.22;;;-145.32;100.00
14041;BME280;7095;51.388;6.196;2023-07-20T04:27:53;115467.22;;;-145.32;100.00
14041;BME280;7095;51.388;6.196;2023-07-20T04:30:23;115467.22;;;-145.32;100.00
14041;BME280;7095;51.388;6.196;2023-07-20T04:32:52;115208.13;;;-145.32;100.00
14041;BME280;7095;51.388;6.196;2023-07-20T04:35:46;115208.13;;;-145.32;100.00
14041;BME280;7095;51.388;6.196;2023-07-20T04:38:18;115208.13;;;-145.32;100.00
14041;BME280;7095;51.388;6.196;2023-07-20T04:40:51;114949.09;;;-145.32;100.00
14041;BME280;7095;51.388;6.196;2023-07-20T04:43:20;114949.09;;;-145.32;100.00
14041;BME280;7095;51.388;6.196;2023-07-20T04:45:49;114949.09;;;-145.32;100.00
14041;BME280;7095;51.388;6.196;2023-07-20T04:48:19;114949.09;;;-145.32;100.00
14041;BME280;7095;51.388;6.196;2023-07-20T04:50:52;114949.09;;;-145.32;100.00
14041;BME280;7095;51.388;6.196;2023-07-20T04:53:21;114690.03;;;-145.32;100.00
14041;BME280;7095;51.388;6.196;2023-07-20T04:55:50;114690.03;;;-145.32;100.00
14041;BME280;7095;51.388;6.196;2023-07-20T04:58:22;114690.03;;;-145.32;100.00
14041;BME280;7095;51.388;6.196;2023-07-20T05:00:53;114431.03;;;-145.32;100.00
14041;BME280;7095;51.388;6.196;2023-07-20T05:03:22;114431.03;;;-145.32;100.00
14041;BME280;7095;51.388;6.196;2023-07-20T05:05:52;114690.03;;;-145.32;100.00
14041;BME280;7095;51.388;6.196;2023-07-20T05:08:21;114690.03;;;-145.32;100.00
14041;BME280;7095;51.388;6.196;2023-07-20T05:10:50;113654.06;;;-145.32;100.00
14041;BME280;7095;51.388;6.196;2023-07-20T05:13:20;113913.03;;;-145.32;100.00
14041;BME280;7095;51.388;6.196;2023-07-20T05:15:51;113136.22;;;-145.32;100.00
14041;BME280;7095;51.388;6.196;2023-07-20T05:18:20;112877.31;;;-145.32;100.00
14041;BME280;7095;51.388;6.196;2023-07-20T05:20:52;112100.69;;;-145.32;100.00
14041;BME280;7095;51.388;6.196;2023-07-20T05:23:22;111841.88;;;-145.32;100.00
14041;BME280;7095;51.388;6.196;2023-07-20T05:25:54;111324.28;;;-145.32;100.00
14041;BME280;7095;51.388;6.196;2023-07-20T05:28:23;111324.28;;;-145.32;100.00
14041;BME280;7095;51.388;6.196;2023-07-20T05:30:52;111583.06;;;-145.32;100.00
14041;BME280;7095;51.388;6.196;2023-07-20T05:33:21;111065.50;;;-145.32;100.00
14041;BME280;7095;51.388;6.196;2023-07-20T05:35:50;110548.00;;;-145.32;100.00
14041;BME280;7095;51.388;6.196;2023-07-20T05:38:21;110289.28;;;-145.32;100.00
14041;BME280;7095;51.388;6.196;2023-07-20T05:40:50;110548.00;;;-145.32;100.00
14041;BME280;7095;51.388;6.196;2023-07-20T05:43:18;109771.94;;;-145.32;100.00
14041;BME280;7095;51.388;6.196;2023-07-20T05:45:47;109254.63;;;-145.32;100.00
14041;BME280;7095;51.388;6.196;2023-07-20T05:48:16;108996.00;;;-145.32;100.00
14041;BME280;7095;51.388;6.196;2023-07-20T05:50:45;108996.00;;;-145.32;100.00
14041;BME280;7095;51.388;6.196;2023-07-20T05:53:14;108737.41;;;-145.32;100.00
14041;BME280;7095;51.388;6.196;2023-07-20T05:55:44;108996.00;;;-145.32;100.00
14041;BME280;7095;51.388;6.196;2023-07-20T05:58:13;108478.84;;;-145.32;100.00
14041;BME280;7095;51.388;6.196;2023-07-20T06:00:41;107961.72;;;-145.32;100.00
14041;BME280;7095;51.388;6.196;2023-07-20T06:03:10;108220.28;;;-145.32;100.00
14041;BME280;7095;51.388;6.196;2023-07-20T06:05:42;107444.69;;;-145.32;100.00
14041;BME280;7095;51.388;6.196;2023-07-20T06:08:11;107186.22;;;-145.32;100.00
14041;BME280;7095;51.388;6.196;2023-07-20T06:10:40;107444.69;;;-145.32;100.00
14041;BME280;7095;51.388;6.196;2023-07-20T06:13:13;106669.31;;;-145.32;100.00
14041;BME280;7095;51.388;6.196;2023-07-20T06:15:42;106927.75;;;-145.32;100.00
14041;BME280;7095;51.388;6.196;2023-07-20T06:18:11;106410.88;;;-145.32;100.00
14041;BME280;7095;51.388;6.196;2023-07-20T06:20:40;106410.88;;;-145.32;100.00
14041;BME280;7095;51.388;6.196;2023-07-20T06:23:10;107444.69;;;-145.32;100.00
14041;BME280;7095;51.388;6.196;2023-07-20T06:25:39;105377.34;;;-145.32;100.00
14041;BME280;7095;51.388;6.196;2023-07-20T06:28:10;104860.72;;;-145.32;100.00
14041;BME280;7095;51.388;6.196;2023-07-20T06:30:41;104860.72;;;-145.32;100.00
14041;BME280;7095;51.388;6.196;2023-07-20T06:33:09;104860.72;;;-145.32;100.00
14041;BME280;7095;51.388;6.196;2023-07-20T06:35:41;103311.25;;;-145.32;100.00
14041;BME280;7095;51.388;6.196;2023-07-20T06:38:10;103053.06;;;-145.32;100.00
14041;BME280;7095;51.388;6.196;2023-07-20T06:40:42;100472.31;;;-145.32;100.00
14041;BME280;7095;51.388;6.196;2023-07-20T06:43:11;98151.31;;;-145.32;100.00
14041;BME280;7095;51.388;6.196;2023-07-20T06:45:44;97120.22;;;-145.32;100.00
14041;BME280;7095;51.388;6.196;2023-07-20T06:48:13;95574.19;;;-145.32;100.00
14041;BME280;7095;51.388;6.196;2023-07-20T06:50:43;93513.91;;;-145.32;100.00
14041;BME280;7095;51.388;6.196;2023-07-20T06:53:12;92741.59;;;-145.32;100.00
14041;BME280;7095;51.388;6.196;2023-07-20T06:55:44;90425.72;;;-145.32;100.00
14041;BME280;7095;51.388;6.196;2023-07-20T06:58:14;91969.47;;;-145.32;100.00
14041;BME280;7095;51.388;6.196;2023-07-20T07:00:50;92484.19;;;-145.32;100.00
14041;BME280;7095;51.388;6.196;2023-07-20T07:03:19;91969.47;;;-145.32;100.00
14041;BME280;7095;51.388;6.196;2023-07-20T07:05:55;90425.72;;;-145.32;100.00
14041;BME280;7095;51.388;6.196;2023-07-20T07:08:25;84771.25;;;-145.32;100.00
14041;BME280;7095;51.388;6.196;2023-07-20T07:10:54;82204.09;;;-145.32;100.00
14041;BME280;7095;51.388;6.196;2023-07-20T07:13:23;77844.31;;;-145.32;100.00
14041;BME280;7095;51.388;6.196;2023-07-20T07:15:53;75026.22;;;-145.32;100.00
14041;BME280;7095;51.388;6.196;2023-07-20T07:18:22;73490.06;;;-145.32;100.00
14041;BME280;7095;51.388;6.196;2023-07-20T07:20:52;72722.25;;;-145.32;100.00
14041;BME280;7095;51.388;6.196;2023-07-20T07:23:25;67230.53;;;-145.32;100.00
14041;BME280;7095;51.388;6.196;2023-07-20T07:25:54;65504.34;;;-145.32;100.00
14041;BME280;7095;51.388;6.196;2023-07-20T07:28:23;65229.03;;;-145.32;100.00
14041;BME280;7095;51.388;6.196;2023-07-20T07:30:55;62345.56;;;-145.32;100.00
14041;BME280;7095;51.388;6.196;2023-07-20T07:33:24;62225.97;;;-145.32;100.00
14041;BME280;7095;51.388;6.196;2023-07-20T07:35:54;61530.44;;;-145.32;100.00
14041;BME280;7095;51.388;6.196;2023-07-20T07:38:23;60137.78;;;-145.32;100.00
14041;BME280;7095;51.388;6.196;2023-07-20T07:40:57;59603.97;;;-145.32;100.00
14041;BME280;7095;51.388;6.196;2023-07-20T07:43:26;58642.13;;;-145.32;100.00
14041;BME280;7095;51.388;6.196;2023-07-20T07:45:57;56584.00;;;-145.32;100.00
14041;BME280;7095;51.388;6.196;2023-07-20T07:48:27;57087.47;;;-145.32;100.00
14041;BME280;7095;51.388;6.196;2023-07-20T07:50:56;57413.88;;;-145.32;100.00
14041;BME280;7095;51.388;6.196;2023-07-20T07:53:25;57226.78;;;-145.32;100.00
14041;BME280;7095;51.388;6.196;2023-07-20T07:55:56;57485.53;;;-145.32;100.00
14041;BME280;7095;51.388;6.196;2023-07-20T07:58:24;58134.44;;;-145.32;100.00
14041;BME280;7095;51.388;6.196;2023-07-20T08:00:53;58449.00;;;-145.32;100.00
14041;BME280;7095;51.388;6.196;2023-07-20T08:03:23;58419.16;;;-145.32;100.00
14041;BME280;7095;51.388;6.196;2023-07-20T08:05:54;57636.78;;;-145.32;100.00
14041;BME280;7095;51.388;6.196;2023-07-20T08:08:22;57800.03;;;-145.32;100.00
14041;BME280;7095;51.388;6.196;2023-07-20T08:10:53;57676.59;;;-145.32;100.00
14041;BME280;7095;51.388;6.196;2023-07-20T08:13:22;56675.53;;;-145.32;100.00
14041;BME280;7095;51.388;6.196;2023-07-20T08:15:51;55893.56;;;-145.32;100.00
14041;BME280;7095;51.388;6.196;2023-07-20T08:18:20;55623.03;;;-145.32;100.00
14041;BME280;7095;51.388;6.196;2023-07-20T08:20:52;55384.31;;;-145.32;100.00
14041;BME280;7095;51.388;6.196;2023-07-20T08:23:21;55463.88;;;-145.32;100.00
14041;BME280;7095;51.388;6.196;2023-07-20T08:25:49;55360.44;;;-145.32;100.00
14041;BME280;7095;51.388;6.196;2023-07-20T08:28:18;55217.22;;;-145.32;100.00
14041;BME280;7095;51.388;6.196;2023-07-20T08:30:48;54984.50;;;-145.32;100.00
14041;BME280;7095;51.388;6.196;2023-07-20T08:33:18;54857.22;;;-145.32;100.00
14041;BME280;7095;51.388;6.196;2023-07-20T08:35:47;54871.16;;;-145.32;100.00
14041;BME280;7095;51.388;6.196;2023-07-20T08:38:20;54982.53;;;-145.32;100.00
14041;BME280;7095;51.388;6.196;2023-07-20T08:40:51;55030.25;;;-145.32;100.00
14041;BME280;7095;51.388;6.196;2023-07-20T08:43:23;54883.06;;;-145.32;100.00
14041;BME280;7095;51.388;6.196;2023-07-20T08:45:54;54944.72;;;-145.32;100.00
14041;BME280;7095;51.388;6.196;2023-07-20T08:48:24;54825.41;;;-145.32;100.00
14041;BME280;7095;51.388;6.196;2023-07-20T08:50:53;54966.59;;;-145.32;100.00
14041;BME280;7095;51.388;6.196;2023-07-20T08:53:24;55191.38;;;-145.32;100.00
14041;BME280;7095;51.388;6.196;2023-07-20T08:55:53;55356.47;;;-145.32;100.00
14041;BME280;7095;51.388;6.196;2023-07-20T08:58:23;55290.81;;;-145.32;100.00
14041;BME280;7095;51.388;6.196;2023-07-20T09:00:54;54998.44;;;-145.32;100.00
14041;BME280;7095;51.388;6.196;2023-07-20T09:03:24;54851.25;;;-145.32;100.00
14041;BME280;7095;51.388;6.196;2023-07-20T09:05:53;54779.66;;;-145.32;100.00
14041;BME280;7095;51.388;6.196;2023-07-20T09:08:26;54815.47;;;-145.32;100.00
14041;BME280;7095;51.388;6.196;2023-07-20T09:10:55;54664.31;;;-145.32;100.00
14041;BME280;7095;51.388;6.196;2023-07-20T09:13:25;54385.91;;;-145.32;100.00
14041;BME280;7095;51.388;6.196;2023-07-20T09:15:54;54276.53;;;-145.32;100.00
14041;BME280;7095;51.388;6.196;2023-07-20T09:18:24;54181.06;;;-145.32;100.00
14041;BME280;7095;51.388;6.196;2023-07-20T09:20:53;54077.69;;;-145.32;100.00
14041;BME280;7095;51.388;6.196;2023-07-20T09:23:31;53944.47;;;-145.32;100.00
14041;BME280;7095;51.388;6.196;2023-07-20T09:26:00;53992.19;;;-145.32;100.00
14041;BME280;7095;51.388;6.196;2023-07-20T09:28:29;53972.28;;;-145.32;100.00
14041;BME280;7095;51.388;6.196;2023-07-20T09:30:58;53924.56;;;-145.32;100.00
14041;BME280;7095;51.388;6.196;2023-07-20T09:33:27;53876.84;;;-145.32;100.00
14041;BME280;7095;51.388;6.196;2023-07-20T09:36:02;53872.88;;;-145.32;100.00
14041;BME280;7095;51.388;6.196;2023-07-20T09:38:52;53904.69;;;-145.32;100.00
14041;BME280;7095;51.388;6.196;2023-07-20T09:41:24;53847.03;;;-145.32;100.00
14041;BME280;7095;51.388;6.196;2023-07-20T09:43:56;53783.41;;;-145.32;100.00
14041;BME280;7095;51.388;6.196;2023-07-20T09:46:41;53835.09;;;-145.32;100.00
14041;BME280;7095;51.388;6.196;2023-07-20T09:49:13;53791.34;;;-145.32;100.00
14041;BME280;7095;51.388;6.196;2023-07-20T09:51:45;53729.72;;;-145.32;100.00
14041;BME280;7095;51.388;6.196;2023-07-20T09:54:19;53693.94;;;-145.32;100.00
14041;BME280;7095;51.388;6.196;2023-07-20T09:56:50;53648.22;;;-145.32;100.00
14041;BME280;7095;51.388;6.196;2023-07-20T09:59:20;53636.28;;;-145.32;100.00
14041;BME280;7095;51.388;6.196;2023-07-20T10:01:49;53616.41;;;-145.32;98.79
14041;BME280;7095;51.388;6.196;2023-07-20T10:04:18;53604.47;;;-145.32;90.33
14041;BME280;7095;51.388;6.196;2023-07-20T10:06:50;53570.69;;;-145.32;88.04
14041;BME280;7095;51.388;6.196;2023-07-20T10:09:24;53576.63;;;-145.32;86.15
14041;BME280;7095;51.388;6.196;2023-07-20T10:11:55;53522.97;;;-145.32;77.73
14041;BME280;7095;51.388;6.196;2023-07-20T10:14:50;53517.00;;;-145.32;79.13
14041;BME280;7095;51.388;6.196;2023-07-20T10:17:21;53526.94;;;-145.32;79.36
14041;BME280;7095;51.388;6.196;2023-07-20T10:19:55;53493.13;;;-145.32;71.42
14041;BME280;7095;51.388;6.196;2023-07-20T10:22:26;53526.94;;;-145.32;78.30
14041;BME280;7095;51.388;6.196;2023-07-20T10:24:58;53471.28;;;-145.32;75.60
14041;BME280;7095;51.388;6.196;2023-07-20T10:27:28;53526.94;;;-145.32;78.92
14041;BME280;7095;51.388;6.196;2023-07-20T10:29:57;53503.06;;;-145.32;78.97
14041;BME280;7095;51.388;6.196;2023-07-20T10:32:28;53499.09;;;-145.32;82.59
14041;BME280;7095;51.388;6.196;2023-07-20T10:34:57;53532.91;;;-145.32;86.53
14041;BME280;7095;51.388;6.196;2023-07-20T10:37:48;53515.00;;;-145.32;85.33
14041;BME280;7095;51.388;6.196;2023-07-20T10:40:26;53495.13;;;-145.32;78.74
14041;BME280;7095;51.388;6.196;2023-07-20T10:43:00;53471.28;;;-145.32;71.93
14041;BME280;7095;51.388;6.196;2023-07-20T10:45:48;53445.44;;;-145.32;66.51
14041;BME280;7095;51.388;6.196;2023-07-20T10:48:19;53439.47;;;-145.32;67.84
14041;BME280;7095;51.388;6.196;2023-07-20T10:51:11;53425.53;;;-145.32;62.79
14041;BME280;7095;51.388;6.196;2023-07-20T10:53:42;53423.56;;;-145.32;67.96
14041;BME280;7095;51.388;6.196;2023-07-20T10:56:14;53415.59;;;-145.32;63.51
14041;BME280;7095;51.388;6.196;2023-07-20T10:58:43;53389.75;;;-145.32;65.19
14041;BME280;7095;51.388;6.196;2023-07-20T11:01:14;53379.81;;;-145.32;62.76
14041;BME280;7095;51.388;6.196;2023-07-20T11:03:49;53403.69;;;-145.32;60.42
14041;BME280;7095;51.388;6.196;2023-07-20T11:06:30;53395.72;;;-145.32;59.00
14041;BME280;7095;51.388;6.196;2023-07-20T11:09:07;53387.78;;;-145.32;61.28
14041;BME280;7095;51.388;6.196;2023-07-20T11:11:41;53403.69;;;-145.32;61.19
14041;BME280;7095;51.388;6.196;2023-07-20T11:14:11;53381.81;;;-145.32;63.41
14041;BME280;7095;51.388;6.196;2023-07-20T11:16:49;53419.59;;;-145.32;63.84
14041;BME280;7095;51.388;6.196;2023-07-20T11:19:20;53403.69;;;-145.32;62.27
14041;BME280;7095;51.388;6.196;2023-07-20T11:21:55;53385.78;;;-145.32;62.53
14041;BME280;7095;51.388;6.196;2023-07-20T11:24:30;53391.75;;;-145.32;64.31
14041;BME280;7095;51.388;6.196;2023-07-20T11:27:04;53373.84;;;-145.32;61.92
14041;BME280;7095;51.388;6.196;2023-07-20T11:29:35;53397.72;;;-145.32;66.16
14041;BME280;7095;51.388;6.196;2023-07-20T11:32:04;53373.84;;;-145.32;67.94
14041;BME280;7095;51.388;6.196;2023-07-20T11:34:34;53425.53;;;-145.32;70.98
14041;BME280;7095;51.388;6.196;2023-07-20T11:37:05;53383.78;;;-145.32;68.45
14041;BME280;7095;51.388;6.196;2023-07-20T11:39:37;53391.75;;;-145.32;71.79
14041;BME280;7095;51.388;6.196;2023-07-20T11:42:08;53379.81;;;-145.32;65.87
14041;BME280;7095;51.388;6.196;2023-07-20T11:44:37;53393.75;;;-145.32;66.39
14041;BME280;7095;51.388;6.196;2023-07-20T11:47:09;53371.88;;;-145.32;62.19
14041;BME280;7095;51.388;6.196;2023-07-20T11:49:39;53363.91;;;-145.32;61.75
14041;BME280;7095;51.388;6.196;2023-07-20T11:52:09;53379.81;;;-145.32;63.63
14041;BME280;7095;51.388;6.196;2023-07-20T11:54:39;53369.88;;;-145.32;64.51
14041;BME280;7095;51.388;6.196;2023-07-20T11:57:17;53395.72;;;-145.32;64.42
14041;BME280;7095;51.388;6.196;2023-07-20T11:59:56;53348.00;;;-145.32;59.23
14041;BME280;7095;51.388;6.196;2023-07-20T12:02:27;53369.88;;;-145.32;64.14
14041;BME280;7095;51.388;6.196;2023-07-20T12:04:57;53350.00;;;-145.32;60.97
14041;BME280;7095;51.388;6.196;2023-07-20T12:07:52;53328.13;;;-145.32;55.70
14041;BME280;7095;51.388;6.196;2023-07-20T12:11:42;53322.16;;;-145.32;53.95
14041;BME280;7095;51.388;6.196;2023-07-20T12:14:20;53330.13;;;-145.32;52.08
14041;BME280;7095;51.388;6.196;2023-07-20T12:16:53;53302.28;;;-145.32;50.59
14041;BME280;7095;51.388;6.196;2023-07-20T12:19:25;53312.22;;;-145.32;50.49
14041;BME280;7095;51.388;6.196;2023-07-20T12:21:57;53276.44;;;-145.32;48.40
14041;BME280;7095;51.388;6.196;2023-07-20T12:24:27;53304.28;;;-145.32;49.60
14041;BME280;7095;51.388;6.196;2023-07-20T12:26:57;53324.16;;;-145.32;49.12
14041;BME280;7095;51.388;6.196;2023-07-20T12:29:28;53326.16;;;-145.32;51.83
14041;BME280;7095;51.388;6.196;2023-07-20T12:31:59;53300.31;;;-145.32;53.02
14041;BME280;7095;51.388;6.196;2023-07-20T12:34:28;53292.34;;;-145.32;55.26
14041;BME280;7095;51.388;6.196;2023-07-20T12:36:57;53338.06;;;-145.32;55.09
14041;BME280;7095;51.388;6.196;2023-07-20T12:39:26;53312.22;;;-145.32;52.24
14041;BME280;7095;51.388;6.196;2023-07-20T12:41:56;53292.34;;;-145.32;51.46
14041;BME280;7095;51.388;6.196;2023-07-20T12:44:24;53284.41;;;-145.32;50.79
14041;BME280;7095;51.388;6.196;2023-07-20T12:46:56;53286.38;;;-145.32;50.41
14041;BME280;7095;51.388;6.196;2023-07-20T12:49:24;53312.22;;;-145.32;50.06
14041;BME280;7095;51.388;6.196;2023-07-20T12:51:54;53276.44;;;-145.32;48.84
14041;BME280;7095;51.388;6.196;2023-07-20T12:54:23;53228.75;;;-145.32;47.35
14041;BME280;7095;51.388;6.196;2023-07-20T12:56:51;53252.59;;;-145.32;46.39
14041;BME280;7095;51.388;6.196;2023-07-20T12:59:23;53268.50;;;-145.32;45.64
14041;BME280;7095;51.388;6.196;2023-07-20T13:01:51;53250.59;;;-145.32;44.46